CheckWX is a tool to help pilots better visualize weather data.  It is not intended as a substitute for an official pre-flight weather briefing.

09:48:47 UTC

LGRP TAF
Diagoras Airport
Rodes Island, Greece
TAF LGRP 200500Z 2006/2106 VRB05KT 9999 FEW018 BECMG 2008/2010 12008KT BECMG 2014/2016 27010KT

Mar-20@
06:00 UTC

Mar-20 @ 06:00 UTC

Mar-20@
08:00 UTC

Mar-20 @ 08:00 UTC

TAF LGRP 200500Z 2006/2106 VRB05KT 9999 FEW018

Expired

Wind
  • Variable at 5 KTS
Cloud Levels
  • Few at 1,800' AGL

Mar-20@
08:00 UTC

Mar-20 @ 08:00 UTC

Mar-20@
14:00 UTC

Mar-20 @ 14:00 UTC

BECMG 2008/2010 12008KT

Becoming

Becoming Conditions expected by Wed, Mar 20, 2019 @ 10:00 UTC

Wind
  • 120° at 8 KTS
Cloud Levels
  • Few at 1,800' AGL

Mar-20@
14:00 UTC

Mar-20 @ 14:00 UTC

Mar-21@
06:00 UTC

Mar-21 @ 06:00 UTC

BECMG 2014/2016 27010KT

Becoming

Becoming Conditions expected by Wed, Mar 20, 2019 @ 16:00 UTC

Wind
  • 270° at 10 KTS
Cloud Levels
  • Few at 1,800' AGL